sensor_id;sensor_type;location;lat;lon;timestamp;P1;durP1;ratioP1;P2;durP2;ratioP2
1977;SDS011;989;53.016;8.346;2023-06-10T00:01:55;7.97;;;3.50;;
1977;SDS011;989;53.016;8.346;2023-06-10T00:04:23;7.67;;;4.17;;
1977;SDS011;989;53.016;8.346;2023-06-10T00:06:49;12.17;;;2.97;;
1977;SDS011;989;53.016;8.346;2023-06-10T00:09:15;6.97;;;3.17;;
1977;SDS011;989;53.016;8.346;2023-06-10T00:11:43;11.67;;;3.93;;
1977;SDS011;989;53.016;8.346;2023-06-10T00:14:09;10.40;;;3.00;;
1977;SDS011;989;53.016;8.346;2023-06-10T00:16:36;11.47;;;3.93;;
1977;SDS011;989;53.016;8.346;2023-06-10T00:19:04;5.30;;;3.23;;
1977;SDS011;989;53.016;8.346;2023-06-10T00:21:30;6.20;;;3.77;;
1977;SDS011;989;53.016;8.346;2023-06-10T00:24:05;4.77;;;2.97;;
1977;SDS011;989;53.016;8.346;2023-06-10T00:26:36;7.83;;;3.30;;
1977;SDS011;989;53.016;8.346;2023-06-10T00:29:03;12.13;;;3.30;;
1977;SDS011;989;53.016;8.346;2023-06-10T00:31:30;11.00;;;3.93;;
1977;SDS011;989;53.016;8.346;2023-06-10T00:33:56;10.80;;;3.33;;
1977;SDS011;989;53.016;8.346;2023-06-10T00:36:23;6.10;;;3.53;;
1977;SDS011;989;53.016;8.346;2023-06-10T00:38:49;8.53;;;3.73;;
1977;SDS011;989;53.016;8.346;2023-06-10T00:41:15;8.23;;;3.70;;
1977;SDS011;989;53.016;8.346;2023-06-10T00:43:41;12.53;;;4.20;;
1977;SDS011;989;53.016;8.346;2023-06-10T00:46:08;11.70;;;3.60;;
1977;SDS011;989;53.016;8.346;2023-06-10T00:48:34;10.90;;;3.67;;
1977;SDS011;989;53.016;8.346;2023-06-10T00:51:00;7.70;;;3.77;;
1977;SDS011;989;53.016;8.346;2023-06-10T00:53:26;9.90;;;3.17;;
1977;SDS011;989;53.016;8.346;2023-06-10T00:55:53;12.57;;;3.33;;
1977;SDS011;989;53.016;8.346;2023-06-10T00:58:19;15.63;;;3.90;;
1977;SDS011;989;53.016;8.346;2023-06-10T01:00:45;11.60;;;4.00;;
1977;SDS011;989;53.016;8.346;2023-06-10T01:03:11;12.10;;;4.83;;
1977;SDS011;989;53.016;8.346;2023-06-10T01:05:38;11.50;;;4.33;;
1977;SDS011;989;53.016;8.346;2023-06-10T01:08:20;8.70;;;3.80;;
1977;SDS011;989;53.016;8.346;2023-06-10T01:10:59;7.80;;;3.20;;
1977;SDS011;989;53.016;8.346;2023-06-10T01:13:26;10.67;;;3.93;;
1977;SDS011;989;53.016;8.346;2023-06-10T01:15:57;9.83;;;4.60;;
1977;SDS011;989;53.016;8.346;2023-06-10T01:18:23;7.80;;;4.07;;
1977;SDS011;989;53.016;8.346;2023-06-10T01:20:55;15.37;;;4.27;;
1977;SDS011;989;53.016;8.346;2023-06-10T01:23:22;10.07;;;4.03;;
1977;SDS011;989;53.016;8.346;2023-06-10T01:25:53;7.83;;;3.90;;
1977;SDS011;989;53.016;8.346;2023-06-10T01:34:14;8.37;;;3.90;;
1977;SDS011;989;53.016;8.346;2023-06-10T01:36:44;11.07;;;3.60;;
1977;SDS011;989;53.016;8.346;2023-06-10T01:39:14;8.77;;;3.60;;
1977;SDS011;989;53.016;8.346;2023-06-10T01:41:42;7.13;;;3.90;;
1977;SDS011;989;53.016;8.346;2023-06-10T01:44:08;8.80;;;3.70;;
1977;SDS011;989;53.016;8.346;2023-06-10T01:46:35;8.60;;;4.23;;
1977;SDS011;989;53.016;8.346;2023-06-10T01:49:01;8.57;;;3.20;;
1977;SDS011;989;53.016;8.346;2023-06-10T01:51:27;7.23;;;4.03;;
1977;SDS011;989;53.016;8.346;2023-06-10T01:53:54;7.77;;;3.90;;
1977;SDS011;989;53.016;8.346;2023-06-10T01:56:20;8.23;;;4.27;;
1977;SDS011;989;53.016;8.346;2023-06-10T01:58:46;10.43;;;3.87;;
1977;SDS011;989;53.016;8.346;2023-06-10T02:01:13;19.43;;;6.43;;
1977;SDS011;989;53.016;8.346;2023-06-10T02:03:39;10.47;;;4.80;;
1977;SDS011;989;53.016;8.346;2023-06-10T02:06:05;14.73;;;4.90;;
1977;SDS011;989;53.016;8.346;2023-06-10T02:08:32;18.20;;;5.40;;
1977;SDS011;989;53.016;8.346;2023-06-10T02:10:58;11.77;;;5.10;;
1977;SDS011;989;53.016;8.346;2023-06-10T02:13:24;14.10;;;5.30;;
1977;SDS011;989;53.016;8.346;2023-06-10T02:15:50;10.50;;;5.60;;
1977;SDS011;989;53.016;8.346;2023-06-10T02:18:18;13.37;;;5.30;;
1977;SDS011;989;53.016;8.346;2023-06-10T02:20:45;12.17;;;4.70;;
1977;SDS011;989;53.016;8.346;2023-06-10T02:23:11;11.60;;;5.40;;
1977;SDS011;989;53.016;8.346;2023-06-10T02:25:37;8.60;;;5.27;;
1977;SDS011;989;53.016;8.346;2023-06-10T02:28:04;17.70;;;4.87;;
1977;SDS011;989;53.016;8.346;2023-06-10T02:30:30;15.93;;;4.67;;
1977;SDS011;989;53.016;8.346;2023-06-10T02:32:56;10.50;;;5.77;;
1977;SDS011;989;53.016;8.346;2023-06-10T02:35:24;11.60;;;5.77;;
1977;SDS011;989;53.016;8.346;2023-06-10T02:37:50;13.47;;;4.80;;
1977;SDS011;989;53.016;8.346;2023-06-10T02:40:16;13.37;;;5.47;;
1977;SDS011;989;53.016;8.346;2023-06-10T02:42:42;25.10;;;6.10;;
1977;SDS011;989;53.016;8.346;2023-06-10T02:45:08;10.13;;;5.30;;
1977;SDS011;989;53.016;8.346;2023-06-10T02:47:34;14.30;;;5.73;;
1977;SDS011;989;53.016;8.346;2023-06-10T02:50:02;15.40;;;5.97;;
1977;SDS011;989;53.016;8.346;2023-06-10T02:52:28;11.07;;;5.50;;
1977;SDS011;989;53.016;8.346;2023-06-10T02:54:56;15.23;;;5.83;;
1977;SDS011;989;53.016;8.346;2023-06-10T02:57:22;32.40;;;6.23;;
1977;SDS011;989;53.016;8.346;2023-06-10T02:59:48;21.57;;;7.00;;
1977;SDS011;989;53.016;8.346;2023-06-10T03:02:14;24.70;;;7.20;;
1977;SDS011;989;53.016;8.346;2023-06-10T03:04:40;16.63;;;5.90;;
1977;SDS011;989;53.016;8.346;2023-06-10T03:07:08;19.03;;;5.87;;
1977;SDS011;989;53.016;8.346;2023-06-10T03:09:36;13.87;;;5.30;;
1977;SDS011;989;53.016;8.346;2023-06-10T03:12:02;19.50;;;5.50;;
1977;SDS011;989;53.016;8.346;2023-06-10T03:14:28;13.00;;;6.60;;
1977;SDS011;989;53.016;8.346;2023-06-10T03:16:54;17.17;;;6.50;;
1977;SDS011;989;53.016;8.346;2023-06-10T03:19:20;13.50;;;6.70;;
1977;SDS011;989;53.016;8.346;2023-06-10T03:21:49;17.07;;;6.67;;
1977;SDS011;989;53.016;8.346;2023-06-10T03:24:31;20.67;;;6.87;;
1977;SDS011;989;53.016;8.346;2023-06-10T03:26:57;19.00;;;8.83;;
1977;SDS011;989;53.016;8.346;2023-06-10T03:29:23;18.80;;;7.43;;
1977;SDS011;989;53.016;8.346;2023-06-10T03:31:49;15.30;;;7.20;;
1977;SDS011;989;53.016;8.346;2023-06-10T03:34:15;18.07;;;7.70;;
1977;SDS011;989;53.016;8.346;2023-06-10T03:36:41;21.60;;;9.20;;
1977;SDS011;989;53.016;8.346;2023-06-10T03:39:07;14.67;;;7.53;;
1977;SDS011;989;53.016;8.346;2023-06-10T03:41:34;22.57;;;10.03;;
1977;SDS011;989;53.016;8.346;2023-06-10T03:44:00;15.17;;;10.37;;
1977;SDS011;989;53.016;8.346;2023-06-10T03:46:26;32.77;;;10.30;;
1977;SDS011;989;53.016;8.346;2023-06-10T03:48:52;21.07;;;9.90;;
1977;SDS011;989;53.016;8.346;2023-06-10T03:51:18;18.77;;;10.20;;
1977;SDS011;989;53.016;8.346;2023-06-10T03:53:44;19.77;;;11.50;;
1977;SDS011;989;53.016;8.346;2023-06-10T03:56:10;20.90;;;11.60;;
1977;SDS011;989;53.016;8.346;2023-06-10T03:58:36;24.77;;;11.80;;
1977;SDS011;989;53.016;8.346;2023-06-10T04:01:02;18.87;;;11.10;;
1977;SDS011;989;53.016;8.346;2023-06-10T04:03:29;21.30;;;11.40;;
1977;SDS011;989;53.016;8.346;2023-06-10T04:05:55;26.00;;;12.47;;
1977;SDS011;989;53.016;8.346;2023-06-10T04:08:22;22.27;;;10.67;;
1977;SDS011;989;53.016;8.346;2023-06-10T04:10:48;20.63;;;10.37;;
1977;SDS011;989;53.016;8.346;2023-06-10T04:13:14;18.90;;;10.40;;
1977;SDS011;989;53.016;8.346;2023-06-10T04:15:40;21.13;;;9.90;;
1977;SDS011;989;53.016;8.346;2023-06-10T04:18:06;20.30;;;10.93;;
1977;SDS011;989;53.016;8.346;2023-06-10T04:20:32;20.97;;;11.47;;
1977;SDS011;989;53.016;8.346;2023-06-10T04:22:58;20.47;;;11.07;;
1977;SDS011;989;53.016;8.346;2023-06-10T04:25:24;20.90;;;10.53;;
1977;SDS011;989;53.016;8.346;2023-06-10T04:27:51;23.93;;;11.50;;
1977;SDS011;989;53.016;8.346;2023-06-10T04:30:17;23.53;;;10.00;;
1977;SDS011;989;53.016;8.346;2023-06-10T04:32:43;26.37;;;13.70;;
1977;SDS011;989;53.016;8.346;2023-06-10T04:35:12;30.60;;;17.37;;
1977;SDS011;989;53.016;8.346;2023-06-10T04:37:40;37.10;;;20.20;;
1977;SDS011;989;53.016;8.346;2023-06-10T04:40:06;38.73;;;18.83;;
1977;SDS011;989;53.016;8.346;2023-06-10T04:42:33;29.87;;;16.17;;
1977;SDS011;989;53.016;8.346;2023-06-10T04:45:00;39.83;;;19.17;;
1977;SDS011;989;53.016;8.346;2023-06-10T04:47:27;39.23;;;19.70;;
1977;SDS011;989;53.016;8.346;2023-06-10T04:49:53;33.30;;;19.00;;
1977;SDS011;989;53.016;8.346;2023-06-10T04:52:19;27.23;;;16.30;;
1977;SDS011;989;53.016;8.346;2023-06-10T04:54:46;31.23;;;17.37;;
1977;SDS011;989;53.016;8.346;2023-06-10T04:57:13;33.20;;;15.07;;
1977;SDS011;989;53.016;8.346;2023-06-10T04:59:39;23.87;;;13.50;;
1977;SDS011;989;53.016;8.346;2023-06-10T05:02:05;19.90;;;10.00;;
1977;SDS011;989;53.016;8.346;2023-06-10T05:04:31;16.80;;;10.60;;
1977;SDS011;989;53.016;8.346;2023-06-10T05:06:57;14.23;;;8.97;;
1977;SDS011;989;53.016;8.346;2023-06-10T05:09:23;19.23;;;8.83;;
1977;SDS011;989;53.016;8.346;2023-06-10T05:11:50;14.30;;;6.10;;
1977;SDS011;989;53.016;8.346;2023-06-10T05:14:18;14.60;;;6.70;;
1977;SDS011;989;53.016;8.346;2023-06-10T05:16:46;15.83;;;6.70;;
1977;SDS011;989;53.016;8.346;2023-06-10T05:19:12;9.73;;;6.23;;
1977;SDS011;989;53.016;8.346;2023-06-10T05:21:38;14.07;;;6.63;;
1977;SDS011;989;53.016;8.346;2023-06-10T05:24:04;10.30;;;5.60;;
1977;SDS011;989;53.016;8.346;2023-06-10T05:26:31;10.67;;;6.13;;
1977;SDS011;989;53.016;8.346;2023-06-10T05:28:58;17.40;;;8.17;;
1977;SDS011;989;53.016;8.346;2023-06-10T05:31:24;16.33;;;7.17;;
1977;SDS011;989;53.016;8.346;2023-06-10T05:33:50;13.27;;;7.50;;
1977;SDS011;989;53.016;8.346;2023-06-10T05:36:16;19.80;;;7.63;;
1977;SDS011;989;53.016;8.346;2023-06-10T05:38:42;13.23;;;7.80;;
1977;SDS011;989;53.016;8.346;2023-06-10T05:41:08;20.97;;;9.03;;
1977;SDS011;989;53.016;8.346;2023-06-10T05:43:34;18.57;;;9.97;;
1977;SDS011;989;53.016;8.346;2023-06-10T05:46:00;16.93;;;9.10;;
1977;SDS011;989;53.016;8.346;2023-06-10T05:48:26;23.00;;;9.07;;
1977;SDS011;989;53.016;8.346;2023-06-10T05:50:52;21.67;;;9.80;;
1977;SDS011;989;53.016;8.346;2023-06-10T05:53:19;15.03;;;7.90;;
1977;SDS011;989;53.016;8.346;2023-06-10T05:55:45;13.00;;;7.93;;
1977;SDS011;989;53.016;8.346;2023-06-10T05:58:12;18.60;;;8.17;;
1977;SDS011;989;53.016;8.346;2023-06-10T06:00:39;14.17;;;7.17;;
1977;SDS011;989;53.016;8.346;2023-06-10T06:03:06;9.60;;;6.10;;
1977;SDS011;989;53.016;8.346;2023-06-10T06:05:35;12.73;;;6.90;;
1977;SDS011;989;53.016;8.346;2023-06-10T06:08:03;12.40;;;6.80;;
1977;SDS011;989;53.016;8.346;2023-06-10T06:10:30;12.97;;;6.27;;
1977;SDS011;989;53.016;8.346;2023-06-10T06:12:56;19.47;;;6.23;;
1977;SDS011;989;53.016;8.346;2023-06-10T06:15:22;18.40;;;6.70;;
1977;SDS011;989;53.016;8.346;2023-06-10T06:17:48;17.03;;;6.53;;
1977;SDS011;989;53.016;8.346;2023-06-10T06:20:15;14.20;;;6.37;;
1977;SDS011;989;53.016;8.346;2023-06-10T06:22:41;13.00;;;6.00;;
1977;SDS011;989;53.016;8.346;2023-06-10T06:25:07;9.53;;;5.77;;
1977;SDS011;989;53.016;8.346;2023-06-10T06:27:33;12.30;;;6.23;;
1977;SDS011;989;53.016;8.346;2023-06-10T06:29:59;10.63;;;6.20;;
1977;SDS011;989;53.016;8.346;2023-06-10T06:32:25;11.80;;;5.50;;
1977;SDS011;989;53.016;8.346;2023-06-10T06:34:52;11.90;;;5.10;;
1977;SDS011;989;53.016;8.346;2023-06-10T06:37:25;12.60;;;5.13;;
1977;SDS011;989;53.016;8.346;2023-06-10T06:39:54;16.17;;;5.50;;
1977;SDS011;989;53.016;8.346;2023-06-10T06:42:20;12.30;;;6.00;;
1977;SDS011;989;53.016;8.346;2023-06-10T06:44:46;10.73;;;5.23;;
1977;SDS011;989;53.016;8.346;2023-06-10T06:47:13;6.97;;;4.57;;
1977;SDS011;989;53.016;8.346;2023-06-10T06:49:39;11.97;;;5.70;;
1977;SDS011;989;53.016;8.346;2023-06-10T06:52:05;10.93;;;6.20;;
1977;SDS011;989;53.016;8.346;2023-06-10T06:54:31;13.37;;;6.37;;
1977;SDS011;989;53.016;8.346;2023-06-10T06:56:57;13.07;;;6.30;;
1977;SDS011;989;53.016;8.346;2023-06-10T06:59:23;8.83;;;5.57;;
1977;SDS011;989;53.016;8.346;2023-06-10T07:01:50;13.30;;;6.37;;
1977;SDS011;989;53.016;8.346;2023-06-10T07:04:19;10.73;;;6.07;;
1977;SDS011;989;53.016;8.346;2023-06-10T07:06:46;13.37;;;5.33;;
1977;SDS011;989;53.016;8.346;2023-06-10T07:09:13;13.33;;;5.77;;
1977;SDS011;989;53.016;8.346;2023-06-10T07:11:39;16.40;;;5.37;;
1977;SDS011;989;53.016;8.346;2023-06-10T07:14:05;13.53;;;6.77;;
1977;SDS011;989;53.016;8.346;2023-06-10T07:16:32;10.87;;;5.73;;
1977;SDS011;989;53.016;8.346;2023-06-10T07:18:58;17.40;;;6.60;;
1977;SDS011;989;53.016;8.346;2023-06-10T07:21:24;11.93;;;5.77;;
1977;SDS011;989;53.016;8.346;2023-06-10T07:23:50;14.00;;;6.37;;
1977;SDS011;989;53.016;8.346;2023-06-10T07:26:21;11.67;;;6.53;;
1977;SDS011;989;53.016;8.346;2023-06-10T07:28:47;17.30;;;6.07;;
1977;SDS011;989;53.016;8.346;2023-06-10T07:31:13;10.90;;;6.00;;
1977;SDS011;989;53.016;8.346;2023-06-10T07:33:40;11.27;;;6.20;;
1977;SDS011;989;53.016;8.346;2023-06-10T07:36:06;8.70;;;5.07;;
1977;SDS011;989;53.016;8.346;2023-06-10T07:38:33;13.10;;;5.83;;
1977;SDS011;989;53.016;8.346;2023-06-10T07:40:59;14.87;;;6.03;;
1977;SDS011;989;53.016;8.346;2023-06-10T07:43:25;8.70;;;5.27;;
1977;SDS011;989;53.016;8.346;2023-06-10T07:45:51;11.57;;;5.60;;
1977;SDS011;989;53.016;8.346;2023-06-10T07:48:18;10.13;;;5.87;;
1977;SDS011;989;53.016;8.346;2023-06-10T07:50:44;12.30;;;6.00;;
1977;SDS011;989;53.016;8.346;2023-06-10T07:53:10;11.00;;;5.13;;
1977;SDS011;989;53.016;8.346;2023-06-10T07:55:36;13.53;;;5.40;;
1977;SDS011;989;53.016;8.346;2023-06-10T07:58:02;10.27;;;5.73;;
1977;SDS011;989;53.016;8.346;2023-06-10T08:00:28;9.57;;;5.90;;
1977;SDS011;989;53.016;8.346;2023-06-10T08:02:54;9.73;;;5.67;;
1977;SDS011;989;53.016;8.346;2023-06-10T08:05:20;10.37;;;5.93;;
1977;SDS011;989;53.016;8.346;2023-06-10T08:07:46;12.17;;;6.07;;
1977;SDS011;989;53.016;8.346;2023-06-10T08:10:12;12.00;;;6.50;;
1977;SDS011;989;53.016;8.346;2023-06-10T08:12:39;8.27;;;5.57;;
1977;SDS011;989;53.016;8.346;2023-06-10T08:15:05;15.50;;;7.57;;
1977;SDS011;989;53.016;8.346;2023-06-10T08:17:31;11.30;;;6.00;;
1977;SDS011;989;53.016;8.346;2023-06-10T08:19:57;15.13;;;6.20;;
1977;SDS011;989;53.016;8.346;2023-06-10T08:22:23;11.50;;;6.30;;
1977;SDS011;989;53.016;8.346;2023-06-10T08:24:49;16.53;;;6.50;;
1977;SDS011;989;53.016;8.346;2023-06-10T08:27:16;18.50;;;6.13;;
1977;SDS011;989;53.016;8.346;2023-06-10T08:29:42;19.97;;;6.30;;
1977;SDS011;989;53.016;8.346;2023-06-10T08:32:08;7.50;;;4.43;;
1977;SDS011;989;53.016;8.346;2023-06-10T08:34:34;8.17;;;5.30;;
1977;SDS011;989;53.016;8.346;2023-06-10T08:37:01;9.00;;;5.80;;
1977;SDS011;989;53.016;8.346;2023-06-10T08:39:27;10.03;;;5.00;;
1977;SDS011;989;53.016;8.346;2023-06-10T08:44:36;10.90;;;5.30;;
1977;SDS011;989;53.016;8.346;2023-06-10T08:47:06;11.90;;;5.93;;
1977;SDS011;989;53.016;8.346;2023-06-10T08:49:42;11.10;;;5.83;;
1977;SDS011;989;53.016;8.346;2023-06-10T08:52:16;14.00;;;5.87;;
1977;SDS011;989;53.016;8.346;2023-06-10T08:54:48;8.70;;;5.40;;
1977;SDS011;989;53.016;8.346;2023-06-10T08:57:22;14.63;;;6.00;;
1977;SDS011;989;53.016;8.346;2023-06-10T08:59:49;16.43;;;5.97;;
1977;SDS011;989;53.016;8.346;2023-06-10T09:02:15;9.67;;;5.37;;
1977;SDS011;989;53.016;8.346;2023-06-10T09:04:44;16.17;;;6.83;;
1977;SDS011;989;53.016;8.346;2023-06-10T09:07:13;13.40;;;5.97;;
1977;SDS011;989;53.016;8.346;2023-06-10T09:09:41;20.30;;;6.67;;
1977;SDS011;989;53.016;8.346;2023-06-10T09:12:08;17.07;;;6.97;;
1977;SDS011;989;53.016;8.346;2023-06-10T09:14:35;18.30;;;5.53;;
1977;SDS011;989;53.016;8.346;2023-06-10T09:17:02;21.57;;;6.50;;
1977;SDS011;989;53.016;8.346;2023-06-10T09:19:28;15.27;;;6.73;;
1977;SDS011;989;53.016;8.346;2023-06-10T09:21:55;16.03;;;6.10;;
1977;SDS011;989;53.016;8.346;2023-06-10T09:24:24;14.50;;;5.83;;
1977;SDS011;989;53.016;8.346;2023-06-10T09:26:50;13.73;;;5.90;;
1977;SDS011;989;53.016;8.346;2023-06-10T09:29:31;15.37;;;5.93;;
1977;SDS011;989;53.016;8.346;2023-06-10T09:32:30;18.07;;;5.33;;
1977;SDS011;989;53.016;8.346;2023-06-10T09:34:56;20.80;;;6.40;;
1977;SDS011;989;53.016;8.346;2023-06-10T09:37:23;12.60;;;5.60;;
1977;SDS011;989;53.016;8.346;2023-06-10T09:40:05;11.10;;;5.50;;
1977;SDS011;989;53.016;8.346;2023-06-10T09:42:33;12.50;;;6.10;;
1977;SDS011;989;53.016;8.346;2023-06-10T09:45:00;14.23;;;4.40;;
1977;SDS011;989;53.016;8.346;2023-06-10T09:47:27;14.40;;;4.97;;
1977;SDS011;989;53.016;8.346;2023-06-10T09:49:54;9.80;;;4.20;;
1977;SDS011;989;53.016;8.346;2023-06-10T09:52:23;10.40;;;5.00;;
1977;SDS011;989;53.016;8.346;2023-06-10T09:54:51;8.80;;;4.60;;
1977;SDS011;989;53.016;8.346;2023-06-10T09:57:17;10.57;;;4.70;;
1977;SDS011;989;53.016;8.346;2023-06-10T09:59:46;8.00;;;4.37;;
1977;SDS011;989;53.016;8.346;2023-06-10T10:02:13;8.77;;;4.00;;
1977;SDS011;989;53.016;8.346;2023-06-10T10:04:40;11.37;;;4.67;;
1977;SDS011;989;53.016;8.346;2023-06-10T10:07:07;9.87;;;4.23;;
1977;SDS011;989;53.016;8.346;2023-06-10T10:09:35;5.90;;;3.60;;
1977;SDS011;989;53.016;8.346;2023-06-10T10:12:11;8.50;;;4.23;;
1977;SDS011;989;53.016;8.346;2023-06-10T10:14:39;8.13;;;4.60;;
1977;SDS011;989;53.016;8.346;2023-06-10T10:17:09;8.23;;;3.97;;
1977;SDS011;989;53.016;8.346;2023-06-10T10:19:48;4.63;;;3.40;;
1977;SDS011;989;53.016;8.346;2023-06-10T10:22:19;6.53;;;3.43;;
1977;SDS011;989;53.016;8.346;2023-06-10T10:24:51;8.93;;;3.10;;
1977;SDS011;989;53.016;8.346;2023-06-10T10:27:21;6.27;;;3.53;;
1977;SDS011;989;53.016;8.346;2023-06-10T10:29:54;9.00;;;3.83;;
1977;SDS011;989;53.016;8.346;2023-06-10T10:32:21;8.20;;;3.77;;
1977;SDS011;989;53.016;8.346;2023-06-10T10:34:58;11.00;;;3.70;;
1977;SDS011;989;53.016;8.346;2023-06-10T10:37:33;7.47;;;3.83;;
1977;SDS011;989;53.016;8.346;2023-06-10T10:40:00;9.60;;;4.30;;
1977;SDS011;989;53.016;8.346;2023-06-10T10:42:26;9.03;;;3.00;;
1977;SDS011;989;53.016;8.346;2023-06-10T10:44:53;9.30;;;3.33;;
1977;SDS011;989;53.016;8.346;2023-06-10T10:47:22;10.93;;;3.47;;
1977;SDS011;989;53.016;8.346;2023-06-10T10:49:54;10.33;;;3.57;;
1977;SDS011;989;53.016;8.346;2023-06-10T10:52:24;7.13;;;3.63;;
1977;SDS011;989;53.016;8.346;2023-06-10T10:54:52;9.90;;;3.50;;
1977;SDS011;989;53.016;8.346;2023-06-10T11:02:18;27.17;;;4.03;;
1977;SDS011;989;53.016;8.346;2023-06-10T11:04:57;4.90;;;3.27;;
1977;SDS011;989;53.016;8.346;2023-06-10T11:07:24;7.83;;;3.23;;
1977;SDS011;989;53.016;8.346;2023-06-10T11:15:12;7.20;;;2.70;;
1977;SDS011;989;53.016;8.346;2023-06-10T11:23:25;9.83;;;3.40;;
1977;SDS011;989;53.016;8.346;2023-06-10T11:28:39;10.77;;;3.70;;
1977;SDS011;989;53.016;8.346;2023-06-10T11:31:06;8.90;;;3.23;;
1977;SDS011;989;53.016;8.346;2023-06-10T11:33:32;7.80;;;3.40;;
1977;SDS011;989;53.016;8.346;2023-06-10T11:35:58;8.57;;;3.57;;
1977;SDS011;989;53.016;8.346;2023-06-10T11:38:25;5.90;;;2.83;;
1977;SDS011;989;53.016;8.346;2023-06-10T11:40:51;5.40;;;3.20;;
1977;SDS011;989;53.016;8.346;2023-06-10T11:43:18;6.53;;;3.00;;
1977;SDS011;989;53.016;8.346;2023-06-10T11:45:44;9.50;;;2.90;;
1977;SDS011;989;53.016;8.346;2023-06-10T11:48:11;6.20;;;2.90;;
1977;SDS011;989;53.016;8.346;2023-06-10T11:50:38;9.80;;;3.00;;
1977;SDS011;989;53.016;8.346;2023-06-10T11:53:07;11.73;;;2.60;;
1977;SDS011;989;53.016;8.346;2023-06-10T11:55:43;8.33;;;2.97;;
1977;SDS011;989;53.016;8.346;2023-06-10T11:58:17;6.27;;;3.00;;
1977;SDS011;989;53.016;8.346;2023-06-10T12:00:47;9.17;;;3.20;;
1977;SDS011;989;53.016;8.346;2023-06-10T12:03:14;12.20;;;3.43;;
1977;SDS011;989;53.016;8.346;2023-06-10T12:05:40;10.23;;;3.50;;
1977;SDS011;989;53.016;8.346;2023-06-10T12:08:23;11.83;;;3.40;;
1977;SDS011;989;53.016;8.346;2023-06-10T12:10:49;5.10;;;2.70;;
1977;SDS011;989;53.016;8.346;2023-06-10T12:13:15;4.20;;;2.43;;
1977;SDS011;989;53.016;8.346;2023-06-10T12:15:43;10.83;;;3.10;;
1977;SDS011;989;53.016;8.346;2023-06-10T12:18:17;3.83;;;2.30;;
1977;SDS011;989;53.016;8.346;2023-06-10T12:20:44;11.90;;;3.40;;
1977;SDS011;989;53.016;8.346;2023-06-10T12:23:11;3.90;;;2.53;;
1977;SDS011;989;53.016;8.346;2023-06-10T12:25:38;7.60;;;2.43;;
1977;SDS011;989;53.016;8.346;2023-06-10T12:28:05;4.13;;;2.40;;
1977;SDS011;989;53.016;8.346;2023-06-10T12:30:35;7.13;;;3.10;;
1977;SDS011;989;53.016;8.346;2023-06-10T12:33:01;9.33;;;3.00;;
1977;SDS011;989;53.016;8.346;2023-06-10T12:35:27;6.00;;;3.10;;
1977;SDS011;989;53.016;8.346;2023-06-10T12:42:57;4.17;;;2.80;;
1977;SDS011;989;53.016;8.346;2023-06-10T12:45:34;6.37;;;2.90;;
1977;SDS011;989;53.016;8.346;2023-06-10T12:50:35;5.30;;;3.00;;
1977;SDS011;989;53.016;8.346;2023-06-10T12:53:04;8.30;;;3.17;;
1977;SDS011;989;53.016;8.346;2023-06-10T12:55:31;4.70;;;2.93;;
1977;SDS011;989;53.016;8.346;2023-06-10T12:57:57;5.97;;;2.70;;
1977;SDS011;989;53.016;8.346;2023-06-10T13:00:25;4.00;;;2.73;;
1977;SDS011;989;53.016;8.346;2023-06-10T13:02:54;4.80;;;2.33;;
1977;SDS011;989;53.016;8.346;2023-06-10T13:05:25;7.27;;;2.60;;
1977;SDS011;989;53.016;8.346;2023-06-10T13:07:51;4.60;;;3.10;;
1977;SDS011;989;53.016;8.346;2023-06-10T13:10:17;2.87;;;2.07;;
1977;SDS011;989;53.016;8.346;2023-06-10T13:12:44;5.37;;;3.13;;
1977;SDS011;989;53.016;8.346;2023-06-10T13:15:10;4.50;;;2.70;;
1977;SDS011;989;53.016;8.346;2023-06-10T13:17:37;7.10;;;2.60;;
1977;SDS011;989;53.016;8.346;2023-06-10T13:20:04;4.53;;;2.83;;
1977;SDS011;989;53.016;8.346;2023-06-10T13:22:31;5.30;;;2.63;;
1977;SDS011;989;53.016;8.346;2023-06-10T13:25:01;6.20;;;3.10;;
1977;SDS011;989;53.016;8.346;2023-06-10T13:27:28;14.83;;;2.80;;
1977;SDS011;989;53.016;8.346;2023-06-10T13:29:54;6.73;;;3.03;;
1977;SDS011;989;53.016;8.346;2023-06-10T13:32:20;8.93;;;3.10;;
1977;SDS011;989;53.016;8.346;2023-06-10T13:34:46;10.60;;;3.60;;
1977;SDS011;989;53.016;8.346;2023-06-10T13:37:14;3.93;;;2.33;;
1977;SDS011;989;53.016;8.346;2023-06-10T13:39:42;5.40;;;2.73;;
1977;SDS011;989;53.016;8.346;2023-06-10T13:42:09;4.57;;;2.77;;
1977;SDS011;989;53.016;8.346;2023-06-10T13:44:35;8.53;;;2.80;;
1977;SDS011;989;53.016;8.346;2023-06-10T13:47:02;6.50;;;3.20;;
1977;SDS011;989;53.016;8.346;2023-06-10T13:49:28;4.27;;;3.30;;
1977;SDS011;989;53.016;8.346;2023-06-10T13:51:55;5.63;;;3.10;;
1977;SDS011;989;53.016;8.346;2023-06-10T13:54:21;6.63;;;3.10;;
1977;SDS011;989;53.016;8.346;2023-06-10T13:56:48;4.93;;;2.37;;
1977;SDS011;989;53.016;8.346;2023-06-10T13:59:14;6.83;;;3.00;;
1977;SDS011;989;53.016;8.346;2023-06-10T14:01:40;3.03;;;2.47;;
1977;SDS011;989;53.016;8.346;2023-06-10T14:04:07;5.60;;;2.93;;
1977;SDS011;989;53.016;8.346;2023-06-10T14:06:33;5.57;;;3.23;;
1977;SDS011;989;53.016;8.346;2023-06-10T14:08:59;7.63;;;2.97;;
1977;SDS011;989;53.016;8.346;2023-06-10T14:11:25;4.27;;;3.10;;
1977;SDS011;989;53.016;8.346;2023-06-10T14:13:52;6.93;;;3.27;;
1977;SDS011;989;53.016;8.346;2023-06-10T14:16:18;4.20;;;3.07;;
1977;SDS011;989;53.016;8.346;2023-06-10T14:18:44;6.27;;;3.50;;
1977;SDS011;989;53.016;8.346;2023-06-10T14:21:10;3.10;;;2.63;;
1977;SDS011;989;53.016;8.346;2023-06-10T14:23:36;5.53;;;3.37;;
1977;SDS011;989;53.016;8.346;2023-06-10T14:26:02;7.77;;;3.50;;
1977;SDS011;989;53.016;8.346;2023-06-10T14:28:30;4.23;;;3.20;;
1977;SDS011;989;53.016;8.346;2023-06-10T14:30:56;8.10;;;3.10;;
1977;SDS011;989;53.016;8.346;2023-06-10T14:33:22;6.47;;;3.50;;
1977;SDS011;989;53.016;8.346;2023-06-10T14:35:49;6.80;;;3.60;;
1977;SDS011;989;53.016;8.346;2023-06-10T14:38:15;7.83;;;5.00;;
1977;SDS011;989;53.016;8.346;2023-06-10T14:40:41;4.30;;;3.43;;
1977;SDS011;989;53.016;8.346;2023-06-10T14:43:07;3.83;;;2.93;;
1977;SDS011;989;53.016;8.346;2023-06-10T14:45:38;6.73;;;3.40;;
1977;SDS011;989;53.016;8.346;2023-06-10T14:48:05;5.73;;;3.07;;
1977;SDS011;989;53.016;8.346;2023-06-10T14:50:32;6.43;;;3.17;;
1977;SDS011;989;53.016;8.346;2023-06-10T14:52:59;7.80;;;3.30;;
1977;SDS011;989;53.016;8.346;2023-06-10T14:55:25;5.13;;;2.80;;
1977;SDS011;989;53.016;8.346;2023-06-10T14:57:51;4.10;;;3.40;;
1977;SDS011;989;53.016;8.346;2023-06-10T15:00:18;8.23;;;3.40;;
1977;SDS011;989;53.016;8.346;2023-06-10T15:02:47;4.63;;;2.90;;
1977;SDS011;989;53.016;8.346;2023-06-10T15:05:13;4.53;;;3.00;;
1977;SDS011;989;53.016;8.346;2023-06-10T15:07:41;4.77;;;3.30;;
1977;SDS011;989;53.016;8.346;2023-06-10T15:10:07;6.07;;;3.20;;
1977;SDS011;989;53.016;8.346;2023-06-10T15:12:34;7.83;;;3.57;;
1977;SDS011;989;53.016;8.346;2023-06-10T15:15:00;7.10;;;3.13;;
1977;SDS011;989;53.016;8.346;2023-06-10T15:17:27;4.70;;;2.87;;
1977;SDS011;989;53.016;8.346;2023-06-10T15:19:54;6.60;;;3.10;;
1977;SDS011;989;53.016;8.346;2023-06-10T15:22:20;4.30;;;2.90;;
1977;SDS011;989;53.016;8.346;2023-06-10T15:24:46;6.93;;;3.43;;
1977;SDS011;989;53.016;8.346;2023-06-10T15:27:12;5.00;;;3.23;;
1977;SDS011;989;53.016;8.346;2023-06-10T15:29:39;4.77;;;3.17;;
1977;SDS011;989;53.016;8.346;2023-06-10T15:32:05;6.67;;;3.10;;
1977;SDS011;989;53.016;8.346;2023-06-10T15:34:31;6.93;;;3.33;;
1977;SDS011;989;53.016;8.346;2023-06-10T15:36:57;4.30;;;3.00;;
1977;SDS011;989;53.016;8.346;2023-06-10T15:39:23;6.53;;;3.93;;
1977;SDS011;989;53.016;8.346;2023-06-10T15:41:52;9.70;;;4.20;;
1977;SDS011;989;53.016;8.346;2023-06-10T15:44:18;6.67;;;3.60;;
1977;SDS011;989;53.016;8.346;2023-06-10T15:46:44;8.23;;;3.73;;
1977;SDS011;989;53.016;8.346;2023-06-10T15:49:10;25.07;;;4.40;;
1977;SDS011;989;53.016;8.346;2023-06-10T15:51:36;4.70;;;3.47;;
1977;SDS011;989;53.016;8.346;2023-06-10T15:54:02;4.60;;;3.60;;
1977;SDS011;989;53.016;8.346;2023-06-10T15:56:28;6.33;;;3.93;;